x

Sentry Shoal (46131) Wave Buoy

12:00 - Fri 31st Oct 2014 All times are PDT. -7 hours from GMT.

  • Sig Wave height 0.7ft
  • Peak Period 2s
  • Wind
    7mph, 9mph gusts
  • Sea Temp 52°f
  • Air Temp 50°f
  • Sea Pressure 1008mb
  • Sentry Shoal
  • Sentry Shoal

More Historic Weather Station data

Upgrade to MSW Pro to gain access to the past 30 days of data for over 8000 Wavebouys and Weather Stations around the globe.

Join Pro

Comparision Forecast

View Surf forecast
   
ven. 10/31 12:00 0.7ft 2s 7 9 mph 1008mb 52f 50f
11:00 0.7ft 2s 9 11 mph 1008mb 52f 49f
10:00 0.7ft 2s 11 13 mph 1007.5mb 52f 49f
9:00 0.7ft 2s 11 13 mph 1007.3mb 52f 49f
8:00 0.7ft 2s 11 13 mph 1006.9mb 52f 49f
7:00 0.7ft 2s 9 11 mph 1006.4mb 52f 50f
6:00 0.7ft 2s 9 11 mph 1007.1mb 52f 50f
5:00 0.3ft 2s 7 9 mph 1006.7mb 52f 51f
4:00 0.3ft 6s 9
mph
1007.2mb 52f 51f
3:00 0.3ft 3s 4 7 mph 1007.6mb 52f 52f
2:00 0.3ft 3s 7 9 mph 1007mb 52f 51f
1:00 0.3ft 3s 4 7 mph 1007.2mb 52f 51f
12:00 0.3ft 3s 4
mph
1006.8mb 52f 51f
jeu. 10/30 11:00 0.3ft 3s 2
mph
1006.8mb 52f 52f
10:00 0.7ft 4s 7 9 mph 1006.6mb 52f 52f
9:00 1ft 4s 9
mph
1005.7mb 52f 53f
8:00 1.3ft 4s 4
mph
1005.6mb 52f 53f
7:00 1.6ft 5s  -  2 mph 1005mb 52f 52f
6:00 2.5ft 4s 9 11 mph 1004.6mb 52f 53f
5:00 3ft 5s 11 13 mph 1004.7mb 52f 52f
4:00 3.5ft 4s 18 22 mph 1004.9mb 52f 53f
3:00 4.5ft 5s 22 29 mph 1005mb 52f 53f
2:00 5ft 5s 20 25 mph 1004.7mb 52f 53f
1:00 2.5ft 3s 13 16 mph 1005.8mb 52f 53f
12:00 2ft 3s 18 22 mph 1006.5mb 52f 52f
11:00 2ft 3s 18 25 mph 1007.2mb 52f 52f
10:00 1.6ft 4s 13 18 mph 1007.7mb 52f 51f
9:00 1.6ft 4s 16 18 mph 1008.7mb 52f 52f
8:00 2ft 3s 18 20 mph 1009.1mb 52f 52f
7:00 2ft 3s 18 22 mph 1009.6mb 52f 53f
6:00 2ft 3s 18 20 mph 1010.5mb 52f 53f
5:00 2ft 3s 20 22 mph 1011.4mb 52f 53f
4:00 2ft 3s 20 22 mph 1012.9mb 52f 53f
3:00 1.3ft 3s 18 20 mph 1013.7mb 52f 53f
2:00 1.3ft 3s 13 16 mph 1014.8mb 52f 53f
1:00 1ft 3s 13 16 mph 1015.3mb 52f 53f
12:00 1ft 3s 11 13 mph 1016.1mb 52f 53f
mer. 10/29 11:00 1.6ft 3s 11 13 mph 1016.3mb 52f 53f
10:00 2ft 3s 13 18 mph 1016.7mb 52f 54f
9:00 1.3ft 3s 18 25 mph 1016.4mb 52f 55f
8:00 1.3ft 3s 13 18 mph 1017.3mb 52f 54f
7:00 1.6ft 3s 16 18 mph 1017.5mb 52f 55f
6:00 1.6ft 3s 16 20 mph 1017.1mb 52f 55f
5:00 2ft 3s 18 20 mph 1016.8mb 53f 55f
4:00 1.6ft 3s 18 20 mph 1016.8mb 53f 55f
3:00 1ft 3s 16 18 mph 1017.1mb 53f 55f
2:00 1ft 3s 13 16 mph 1017.1mb 53f 55f
1:00 0.7ft 3s  -  2 mph 1017.2mb 53f 54f
12:00 0.7ft 3s  -  2 mph 1017mb 53f 55f
11:00 1ft 3s 2
mph
1016.1mb 52f 53f
10:00 1ft 3s 7
mph
1015.6mb 52f 54f
9:00 1ft 3s 2 4 mph 1014.8mb 52f 53f
8:00 1ft 4s 7
mph
1013.8mb 52f 53f
7:00 1.3ft 3s 9 11 mph 1013mb 52f 53f
6:00 1.3ft 3s 9 11 mph 1012.5mb 52f 53f
5:00 1.6ft 4s 11
mph
1011.8mb 52f 53f
4:00 1.6ft 4s 16 20 mph 1011mb 52f 53f
3:00 2ft 4s 11 13 mph 1010.5mb 52f 53f
2:00 2ft 4s 9 13 mph 1010mb 52f 53f
1:00 2.5ft 4s 11 13 mph 1009.2mb 52f 53f
12:00 2.5ft 4s 16 22 mph 1008.5mb 52f 54f
mar. 10/28 11:00 3.5ft 4s 13 16 mph 1007.7mb 52f 54f
10:00 3.5ft 4s 9 16 mph 1007.1mb 52f 54f
9:00 3.5ft 4s 18 22 mph 1006.1mb 52f 54f
8:00 4.5ft 4s 22 27 mph 1005.1mb 52f 54f
7:00 4.5ft 4s 22 27 mph 1004.7mb 52f 55f
6:00 5ft 5s 18 25 mph 1004.5mb 52f 54f
5:00 6ft 5s 20 25 mph 1003.8mb 52f 54f
4:00 6ft 6s 27 31 mph 1003.1mb 52f 55f
3:00 5.5ft 6s 22 29 mph 1003mb 52f 54f
2:00 6ft 5s 29 36 mph 1002.9mb 52f 53f
1:00 7ft 6s 31 36 mph 1002.6mb 52f 53f
12:00 6.5ft 6s 29 38 mph 1003mb 52f 53f
11:00 7.5ft 7s 34 38 mph 1002.7mb 52f 53f
10:00 7.5ft 6s 25 31 mph 1003.3mb 52f 53f
9:00 7.5ft 5s 29 34 mph 1003.3mb 52f 53f
8:00 7.5ft 7s 34 38 mph 1003.2mb 52f 53f
7:00 7.5ft 7s 36 40 mph 1003.4mb 52f 52f
6:00 7ft 7s 29 38 mph 1004.3mb 52f 52f
5:00 6ft 6s 29 34 mph 1005.1mb 52f 51f
4:00 6ft 6s 27 36 mph 1005mb 52f 51f
3:00 6ft 5s 31 38 mph 1006.2mb 52f 52f
2:00 5.5ft 6s 27 34 mph 1007.3mb 53f 52f
1:00 6ft 5s 27 31 mph 1008.4mb 52f 51f
12:00 6ft 5s 27 34 mph 1008.6mb 52f 51f
lun. 10/27 11:00 6ft 6s 31 36 mph 1009mb 52f 51f
10:00 5.5ft 6s 29 36 mph 1009.5mb 53f 51f
9:00 6ft 6s 29 36 mph 1010.4mb 53f 51f